Time;durP1;ratioP1;P1;durP2;ratioP2;P2;SDS_P1;SDS_P2;PMS_P1;PMS_P2;Temp;Humidity;BMP_temperature;BMP_pressure;BME280_temperature;BME280_humidity;BME280_pressure;Samples;Min_cycle;Max_cycle;Signal;HPM_P1;HPM_P2
2023/03/11 00:02:18;;;;;;;7.60;1.60;;;0.90;99.90;;;;;;5071963;28;20032;-67
2023/03/11 00:04:43;;;;;;;9.38;1.65;;;0.90;99.90;;;;;;5072727;28;20046;-67
2023/03/11 00:07:10;;;;;;;9.77;2.40;;;0.90;99.90;;;;;;5072587;28;20098;-66
2023/03/11 00:09:36;;;;;;;5.88;1.40;;;0.90;99.90;;;;;;5071897;28;20040;-67
2023/03/11 00:12:02;;;;;;;7.88;2.00;;;0.90;99.90;;;;;;5071192;28;20051;-68
2023/03/11 00:14:29;;;;;;;4.80;2.08;;;0.80;99.90;;;;;;5072374;28;20044;-67
2023/03/11 00:16:55;;;;;;;9.90;1.80;;;0.80;99.90;;;;;;5070637;28;20550;-67
2023/03/11 00:19:21;;;;;;;8.73;2.20;;;0.80;99.90;;;;;;5072903;28;20041;-67
2023/03/11 00:21:47;;;;;;;9.18;1.75;;;0.70;99.90;;;;;;5054392;28;20047;-67
2023/03/11 00:24:12;;;;;;;4.80;1.23;;;0.70;99.90;;;;;;5070430;28;20049;-67
2023/03/11 00:26:38;;;;;;;6.43;2.00;;;0.70;99.90;;;;;;5071135;28;20041;-66
2023/03/11 00:29:04;;;;;;;7.15;1.58;;;0.70;99.90;;;;;;5071208;28;20554;-66
2023/03/11 00:31:30;;;;;;;3.65;1.20;;;0.70;99.90;;;;;;5071721;28;20037;-66
2023/03/11 00:33:56;;;;;;;7.00;1.30;;;0.70;99.90;;;;;;5070787;28;20424;-66
2023/03/11 00:36:27;;;;;;;9.00;1.73;;;0.60;99.90;;;;;;5070660;28;20040;-66
2023/03/11 00:38:53;;;;;;;9.50;1.63;;;0.60;99.90;;;;;;5071486;28;20047;-66
2023/03/11 00:41:19;;;;;;;8.00;1.40;;;0.60;99.90;;;;;;5070604;28;20413;-66
2023/03/11 00:43:45;;;;;;;5.57;1.20;;;0.60;99.90;;;;;;5071196;28;20045;-66
2023/03/11 00:46:11;;;;;;;7.22;1.45;;;0.50;99.90;;;;;;5070757;28;20055;-66
2023/03/11 00:48:37;;;;;;;4.97;1.27;;;0.50;99.90;;;;;;5071919;28;20551;-66
2023/03/11 00:51:03;;;;;;;3.95;1.20;;;0.50;99.90;;;;;;5070412;28;20489;-66
2023/03/11 00:53:29;;;;;;;9.02;1.40;;;0.40;99.90;;;;;;5070695;28;20059;-66
2023/03/11 00:55:54;;;;;;;4.78;1.20;;;0.30;99.90;;;;;;5070449;28;20045;-66
2023/03/11 00:58:26;;;;;;;5.82;1.10;;;0.30;99.90;;;;;;5070351;28;20041;-66
2023/03/11 01:00:51;;;;;;;6.43;1.10;;;0.30;99.90;;;;;;5070619;28;20032;-66
2023/03/11 01:03:17;;;;;;;2.65;1.00;;;0.30;99.90;;;;;;5070188;28;20421;-66
2023/03/11 01:05:43;;;;;;;7.43;1.20;;;0.30;99.90;;;;;;5071020;28;20040;-66
2023/03/11 01:08:09;;;;;;;3.78;1.08;;;0.30;99.90;;;;;;5053482;28;20043;-67
2023/03/11 01:10:35;;;;;;;7.30;1.17;;;0.30;99.90;;;;;;5070103;28;20106;-66
2023/03/11 01:13:02;;;;;;;6.72;1.48;;;0.20;99.90;;;;;;5069557;28;20050;-66
2023/03/11 01:15:31;;;;;;;4.47;1.40;;;0.20;99.90;;;;;;5071130;28;20608;-66
2023/03/11 01:17:57;;;;;;;7.30;1.10;;;0.10;99.90;;;;;;5069729;28;20041;-66
2023/03/11 01:20:23;;;;;;;5.57;1.40;;;0.10;99.90;;;;;;5069186;28;20047;-65
2023/03/11 01:22:49;;;;;;;6.72;1.30;;;0.10;99.90;;;;;;5069998;28;20044;-65
2023/03/11 01:25:17;;;;;;;5.07;1.05;;;0.10;99.90;;;;;;5070958;28;20052;-66
2023/03/11 01:27:44;;;;;;;3.08;1.00;;;0.10;99.90;;;;;;5070619;28;20131;-66
2023/03/11 01:30:14;;;;;;;5.57;1.27;;;0.10;99.90;;;;;;5069762;28;20477;-66
2023/03/11 01:32:40;;;;;;;6.45;2.00;;;0.10;99.90;;;;;;5069926;28;20115;-66
2023/03/11 01:35:06;;;;;;;7.15;1.33;;;0.20;99.90;;;;;;5070311;28;20474;-66
2023/03/11 01:37:32;;;;;;;5.32;1.52;;;0.20;99.90;;;;;;5055563;28;20494;-66
2023/03/11 01:39:58;;;;;;;5.68;1.48;;;0.20;99.90;;;;;;5049057;28;20037;-66
2023/03/11 01:42:23;;;;;;;5.63;1.25;;;0.20;99.90;;;;;;5049545;28;20032;-66
2023/03/11 01:44:49;;;;;;;6.75;0.90;;;0.20;99.90;;;;;;5049502;28;20151;-66
2023/03/11 01:47:37;;;;;;;3.13;1.30;;;0.30;99.90;;;;;;5049237;28;20049;-66
2023/03/11 01:50:05;;;;;;;4.35;1.30;;;0.30;99.90;;;;;;5050289;28;20041;-66
2023/03/11 01:52:31;;;;;;;4.63;1.70;;;0.30;99.90;;;;;;5050369;28;20124;-66
2023/03/11 01:54:57;;;;;;;6.90;1.50;;;0.30;99.90;;;;;;5049797;28;20175;-66
2023/03/11 01:57:23;;;;;;;7.72;2.75;;;0.40;99.90;;;;;;5050607;28;20044;-64
2023/03/11 01:59:52;;;;;;;5.97;2.25;;;0.40;99.90;;;;;;5049186;28;20133;-65
2023/03/11 02:02:23;;;;;;;6.03;1.95;;;0.40;99.90;;;;;;5048623;28;20440;-66
2023/03/11 02:04:50;;;;;;;5.85;2.22;;;0.40;99.90;;;;;;5050562;28;20041;-66
2023/03/11 02:07:16;;;;;;;6.28;2.03;;;0.40;99.90;;;;;;5049397;28;20041;-66
2023/03/11 02:09:42;;;;;;;7.57;2.30;;;0.40;99.90;;;;;;5049589;28;20505;-66
2023/03/11 02:12:10;;;;;;;11.60;2.92;;;0.40;99.90;;;;;;5050258;28;20075;-66
2023/03/11 02:14:39;;;;;;;5.47;2.10;;;0.50;99.90;;;;;;5048899;28;20132;-66
2023/03/11 02:17:05;;;;;;;4.30;1.50;;;0.50;99.90;;;;;;5049720;28;20102;-66
2023/03/11 02:19:49;;;;;;;6.25;2.10;;;0.50;99.90;;;;;;5050203;28;20041;-66
2023/03/11 02:22:16;;;;;;;5.07;1.55;;;0.50;99.90;;;;;;5048338;28;20044;-66
2023/03/11 02:25:12;;;;;;;5.47;1.50;;;0.50;99.90;;;;;;5049708;28;20060;-66
2023/03/11 02:27:43;;;;;;;4.13;1.58;;;0.50;99.90;;;;;;5048648;28;20481;-66
2023/03/11 02:30:11;;;;;;;6.35;1.45;;;0.40;99.90;;;;;;5048495;28;20111;-65
2023/03/11 02:32:38;;;;;;;6.00;2.25;;;0.30;99.90;;;;;;5048909;28;20048;-65
2023/03/11 02:35:04;;;;;;;3.08;1.60;;;0.20;99.90;;;;;;5048746;28;20788;-66
2023/03/11 02:37:30;;;;;;;3.70;1.38;;;0.10;99.90;;;;;;5049604;28;20175;-65
2023/03/11 02:40:21;;;;;;;4.68;1.52;;;0.00;99.90;;;;;;5050096;28;20079;-66
2023/03/11 02:42:56;;;;;;;5.40;1.48;;;-0.10;99.90;;;;;;5049474;28;20048;-66
2023/03/11 02:45:25;;;;;;;3.40;1.23;;;-0.10;99.90;;;;;;5049030;28;20186;-66
2023/03/11 02:47:53;;;;;;;4.85;1.50;;;-0.20;99.90;;;;;;5048350;28;20056;-66
2023/03/11 02:50:20;;;;;;;4.20;1.30;;;-0.20;99.90;;;;;;5049352;28;20056;-66
2023/03/11 02:52:48;;;;;;;8.30;2.05;;;-0.20;99.90;;;;;;5049064;28;20393;-66
2023/03/11 02:55:15;;;;;;;4.50;1.23;;;-0.30;99.90;;;;;;5049837;28;20512;-66
2023/03/11 02:57:41;;;;;;;2.70;1.52;;;-0.30;99.90;;;;;;5031511;28;20094;-66
2023/03/11 03:00:12;;;;;;;6.80;2.10;;;-0.40;99.90;;;;;;5049719;28;20044;-65
2023/03/11 03:02:38;;;;;;;4.43;1.65;;;-0.60;99.90;;;;;;5050049;28;20041;-65
2023/03/11 03:05:04;;;;;;;5.97;1.48;;;-0.70;99.90;;;;;;5049494;28;20045;-66
2023/03/11 03:07:31;;;;;;;6.32;1.80;;;-0.70;99.90;;;;;;5048892;28;20450;-66
2023/03/11 03:09:57;;;;;;;7.40;1.88;;;-0.80;99.90;;;;;;5050003;28;20052;-66
2023/03/11 03:12:22;;;;;;;4.28;1.10;;;-0.90;99.90;;;;;;5048290;28;20045;-66
2023/03/11 03:14:48;;;;;;;6.63;1.38;;;-1.00;99.90;;;;;;5032058;28;20461;-66
2023/03/11 03:17:14;;;;;;;3.58;1.23;;;-1.10;99.90;;;;;;5049961;28;20520;-66
2023/03/11 03:19:40;;;;;;;3.17;0.90;;;-1.20;99.90;;;;;;5048220;28;20041;-66
2023/03/11 03:22:05;;;;;;;4.50;0.90;;;-1.20;99.90;;;;;;5051669;28;20037;-66
2023/03/11 03:24:31;;;;;;;7.28;1.38;;;-1.30;99.90;;;;;;5053026;28;20452;-66
2023/03/11 03:26:57;;;;;;;4.22;1.20;;;-1.30;99.90;;;;;;5052114;28;20029;-66
2023/03/11 03:29:23;;;;;;;6.00;1.20;;;-1.30;99.90;;;;;;5051201;28;20048;-66
2023/03/11 03:31:48;;;;;;;5.30;1.27;;;-1.30;99.90;;;;;;5050760;28;20387;-66
2023/03/11 03:34:14;;;;;;;4.20;0.93;;;-1.30;99.90;;;;;;5050862;28;20455;-66
2023/03/11 03:36:40;;;;;;;5.10;1.20;;;-1.20;99.90;;;;;;5052275;28;20049;-66
2023/03/11 03:39:06;;;;;;;5.03;1.17;;;-1.20;99.90;;;;;;5050303;28;20045;-66
2023/03/11 03:41:31;;;;;;;4.13;0.95;;;-1.20;99.90;;;;;;5050874;28;20084;-66
2023/03/11 03:43:57;;;;;;;2.50;0.90;;;-1.30;99.90;;;;;;5052044;28;20065;-66
2023/03/11 03:46:23;;;;;;;2.15;0.95;;;-1.30;99.90;;;;;;5051373;28;20504;-66
2023/03/11 03:48:49;;;;;;;7.35;1.08;;;-1.40;99.90;;;;;;5050604;28;20045;-66
2023/03/11 03:51:16;;;;;;;4.20;1.45;;;-1.40;99.90;;;;;;5052080;28;20080;-66
2023/03/11 03:53:41;;;;;;;7.93;1.38;;;-1.50;99.90;;;;;;5050077;28;20044;-66
2023/03/11 03:56:10;;;;;;;1.77;1.05;;;-1.40;99.90;;;;;;5051840;28;20439;-66
2023/03/11 03:58:36;;;;;;;7.15;1.08;;;-1.40;99.90;;;;;;5050599;28;20037;-66
2023/03/11 04:01:03;;;;;;;13.48;2.22;;;-1.40;99.90;;;;;;5050075;28;20360;-66
2023/03/11 04:03:29;;;;;;;7.68;1.33;;;-1.40;99.90;;;;;;5050368;28;20524;-66
2023/03/11 04:06:06;;;;;;;6.88;1.30;;;-1.40;99.90;;;;;;5050381;28;20049;-66
2023/03/11 04:08:32;;;;;;;2.65;1.02;;;-1.40;99.90;;;;;;5049840;28;20037;-66
2023/03/11 04:10:57;;;;;;;5.15;1.00;;;-1.40;99.90;;;;;;5051561;28;20041;-66
2023/03/11 04:13:23;;;;;;;5.38;1.33;;;-1.50;99.90;;;;;;5051500;28;20252;-66
2023/03/11 04:15:49;;;;;;;4.55;1.30;;;-1.50;99.90;;;;;;5049618;28;20451;-66
2023/03/11 04:18:15;;;;;;;5.97;1.10;;;-1.50;99.90;;;;;;5051548;28;20396;-66
2023/03/11 04:20:40;;;;;;;8.05;1.25;;;-1.60;99.90;;;;;;5051555;28;20112;-66
2023/03/11 04:23:06;;;;;;;2.28;0.93;;;-1.60;99.90;;;;;;5049314;28;20041;-66
2023/03/11 04:25:33;;;;;;;7.57;1.35;;;-1.60;99.90;;;;;;5050017;28;20049;-66
2023/03/11 04:27:59;;;;;;;8.65;1.38;;;-1.70;99.90;;;;;;5049453;28;20056;-66
2023/03/11 04:30:25;;;;;;;3.08;1.08;;;-1.70;99.90;;;;;;5051130;28;20044;-65
2023/03/11 04:32:50;;;;;;;2.15;0.90;;;-1.80;99.90;;;;;;5049473;28;20489;-65
2023/03/11 04:35:16;;;;;;;3.80;1.00;;;-1.90;99.90;;;;;;5050327;28;20048;-65
2023/03/11 04:37:42;;;;;;;1.98;0.80;;;-1.90;99.90;;;;;;5049693;28;20044;-65
2023/03/11 04:40:09;;;;;;;2.67;1.17;;;-2.00;99.90;;;;;;5049610;28;20037;-65
2023/03/11 04:42:36;;;;;;;6.05;1.20;;;-2.10;99.90;;;;;;5050218;28;20037;-65
2023/03/11 04:45:01;;;;;;;3.05;1.27;;;-2.20;99.90;;;;;;5050589;28;20045;-65
2023/03/11 04:47:28;;;;;;;1.85;1.13;;;-2.30;99.90;;;;;;5049367;28;20037;-65
2023/03/11 04:49:55;;;;;;;2.83;0.73;;;-2.40;99.90;;;;;;5049635;28;20048;-66
2023/03/11 04:52:21;;;;;;;2.80;1.08;;;-2.50;99.90;;;;;;5050478;28;20041;-65
2023/03/11 04:54:46;;;;;;;2.60;0.88;;;-2.70;99.90;;;;;;5050715;28;20041;-65
2023/03/11 04:57:12;;;;;;;4.45;1.10;;;-2.70;99.90;;;;;;5049993;28;20404;-67
2023/03/11 04:59:38;;;;;;;4.60;1.25;;;-2.80;99.90;;;;;;5051515;28;20041;-66
2023/03/11 05:02:04;;;;;;;5.57;1.50;;;-2.90;99.90;;;;;;5051371;28;20094;-66
2023/03/11 05:04:30;;;;;;;5.55;1.30;;;-3.00;99.90;;;;;;5049724;28;20049;-66
2023/03/11 05:06:56;;;;;;;4.10;0.98;;;-3.10;99.90;;;;;;5050245;28;20049;-66
2023/03/11 05:09:21;;;;;;;7.07;2.03;;;-3.10;99.90;;;;;;5051744;28;20123;-66
2023/03/11 05:11:47;;;;;;;3.03;1.48;;;-3.10;99.90;;;;;;5051325;28;20037;-67
2023/03/11 05:14:13;;;;;;;3.58;1.38;;;-3.20;99.90;;;;;;5050017;28;20048;-65
2023/03/11 05:16:39;;;;;;;7.90;1.40;;;-3.20;99.90;;;;;;5049988;28;20043;-65
2023/03/11 05:19:29;;;;;;;3.33;1.23;;;-3.30;99.90;;;;;;5050769;28;20456;-66
2023/03/11 05:21:50;;;;;;;7.05;1.40;;;-3.30;99.90;;;;;;5051010;28;20047;-66
2023/03/11 05:24:16;;;;;;;6.53;1.35;;;-3.30;99.90;;;;;;5049331;28;20124;-66
2023/03/11 05:26:42;;;;;;;7.20;3.10;;;-3.30;99.90;;;;;;5049620;28;20064;-66
2023/03/11 05:29:08;;;;;;;9.52;3.42;;;-3.40;99.90;;;;;;5050981;28;20041;-66
2023/03/11 05:31:33;;;;;;;3.05;1.23;;;-3.40;99.90;;;;;;5049310;28;20448;-66
2023/03/11 05:33:59;;;;;;;2.63;1.33;;;-3.40;99.90;;;;;;5051093;28;20045;-66
2023/03/11 05:36:25;;;;;;;2.70;1.33;;;-3.50;99.90;;;;;;5050986;28;20096;-66
2023/03/11 05:38:52;;;;;;;6.93;1.35;;;-3.50;99.90;;;;;;5049026;28;20049;-67
2023/03/11 05:41:18;;;;;;;3.65;1.05;;;-3.60;99.90;;;;;;5050920;28;20485;-67
2023/03/11 05:43:44;;;;;;;4.72;0.98;;;-3.60;99.90;;;;;;5048944;28;20052;-66
2023/03/11 05:46:10;;;;;;;3.83;0.95;;;-3.70;99.90;;;;;;5048973;28;20044;-66
2023/03/11 05:48:36;;;;;;;2.80;0.90;;;-3.80;99.90;;;;;;5051025;28;20052;-67
2023/03/11 05:51:10;;;;;;;3.95;0.80;;;-3.80;99.90;;;;;;5049472;28;20059;-66
2023/03/11 05:53:36;;;;;;;4.30;1.35;;;-3.80;99.90;;;;;;5048832;28;20129;-65
2023/03/11 05:56:02;;;;;;;7.47;2.20;;;-3.90;99.90;;;;;;5049594;28;20385;-65
2023/03/11 05:58:29;;;;;;;5.82;1.30;;;-3.90;99.90;;;;;;5050444;28;20033;-66
2023/03/11 06:00:55;;;;;;;5.22;1.65;;;-3.80;99.90;;;;;;5048476;28;20045;-66
2023/03/11 06:03:21;;;;;;;3.22;1.52;;;-3.80;99.90;;;;;;5049128;28;20044;-66
2023/03/11 06:05:48;;;;;;;2.85;1.30;;;-3.80;99.90;;;;;;5048672;28;20041;-66
2023/03/11 06:08:14;;;;;;;3.55;0.80;;;-3.70;99.90;;;;;;5049078;28;20045;-66
2023/03/11 06:10:41;;;;;;;6.40;1.10;;;-3.60;99.90;;;;;;5049375;28;20421;-66
2023/03/11 06:13:07;;;;;;;4.80;1.05;;;-3.60;99.90;;;;;;5032275;28;20045;-64
2023/03/11 06:15:34;;;;;;;3.15;1.20;;;-3.60;99.90;;;;;;5050391;28;20044;-66
2023/03/11 06:17:59;;;;;;;2.92;1.20;;;-3.60;99.90;;;;;;5049032;28;20119;-66
2023/03/11 06:20:25;;;;;;;4.10;1.20;;;-3.60;99.90;;;;;;5049856;28;20117;-66
2023/03/11 06:22:52;;;;;;;3.58;0.90;;;-3.60;99.90;;;;;;5032376;28;20037;-66
2023/03/11 06:25:17;;;;;;;2.78;1.20;;;-3.70;99.90;;;;;;5048652;28;20132;-66
2023/03/11 06:27:49;;;;;;;3.58;1.15;;;-3.70;99.90;;;;;;5049352;28;20124;-66
2023/03/11 06:30:16;;;;;;;5.05;1.02;;;-3.60;99.90;;;;;;5049149;28;20049;-66
2023/03/11 06:32:46;;;;;;;5.45;1.48;;;-3.60;99.90;;;;;;5050403;28;20037;-65
2023/03/11 06:35:12;;;;;;;4.07;1.23;;;-3.60;99.90;;;;;;5049775;28;20047;-65
2023/03/11 06:37:39;;;;;;;4.47;2.03;;;-3.50;99.90;;;;;;5050477;28;20103;-65
2023/03/11 06:40:08;;;;;;;4.80;1.63;;;-3.50;99.90;;;;;;5048931;28;20079;-65
2023/03/11 06:42:34;;;;;;;4.37;1.40;;;-3.30;99.90;;;;;;5049772;28;20532;-65
2023/03/11 06:45:00;;;;;;;6.78;1.80;;;-3.10;99.90;;;;;;5050176;28;20036;-65
2023/03/11 06:47:26;;;;;;;4.35;1.30;;;-3.00;99.90;;;;;;5048962;28;20047;-65
2023/03/11 06:49:52;;;;;;;5.95;1.98;;;-2.90;99.90;;;;;;5048153;28;20041;-65
2023/03/11 06:52:19;;;;;;;7.03;1.95;;;-2.70;99.90;;;;;;5049121;28;20067;-65
2023/03/11 06:54:44;;;;;;;3.40;1.10;;;-2.60;99.90;;;;;;5049243;28;20049;-65
2023/03/11 06:57:10;;;;;;;7.18;1.27;;;-2.50;99.90;;;;;;5051969;28;20037;-65
2023/03/11 06:59:36;;;;;;;3.17;1.05;;;-2.30;99.90;;;;;;5053789;28;20382;-65
2023/03/11 07:02:05;;;;;;;2.47;1.13;;;-2.20;99.90;;;;;;5052435;28;21259;-65
2023/03/11 07:04:31;;;;;;;4.88;1.90;;;-2.00;99.90;;;;;;5053767;28;20116;-65
2023/03/11 07:06:58;;;;;;;3.53;1.13;;;-1.80;99.90;;;;;;5052513;28;20680;-65
2023/03/11 07:09:24;;;;;;;2.58;0.70;;;-1.60;99.90;;;;;;5053108;28;20072;-65
2023/03/11 07:11:53;;;;;;;4.15;0.85;;;-1.40;99.90;;;;;;5052663;28;20045;-65
2023/03/11 07:14:19;;;;;;;3.97;0.90;;;-1.20;99.90;;;;;;5053534;28;20045;-65
2023/03/11 07:16:45;;;;;;;3.05;1.20;;;-1.20;99.90;;;;;;5051619;28;20041;-65
2023/03/11 07:19:11;;;;;;;3.88;0.98;;;-1.20;99.90;;;;;;5053405;28;20120;-65
2023/03/11 07:21:38;;;;;;;3.72;2.08;;;-1.20;99.90;;;;;;5052489;28;20029;-65
2023/03/11 07:24:05;;;;;;;1.98;1.00;;;-1.30;99.90;;;;;;5052326;28;20499;-66
2023/03/11 07:26:32;;;;;;;4.15;1.20;;;-1.20;99.90;;;;;;5053068;28;20045;-65
2023/03/11 07:28:59;;;;;;;4.80;2.00;;;-1.10;99.90;;;;;;5053363;28;20090;-65
2023/03/11 07:31:30;;;;;;;5.55;1.95;;;-1.00;99.90;;;;;;5052836;28;20090;-65
2023/03/11 07:33:58;;;;;;;7.38;1.58;;;-0.90;99.90;;;;;;5052019;28;20036;-65
2023/03/11 07:36:25;;;;;;;3.55;1.52;;;-0.80;99.90;;;;;;5053160;28;20041;-65
2023/03/11 07:38:58;;;;;;;6.63;1.77;;;-0.70;99.90;;;;;;5052669;28;20045;-65
2023/03/11 07:41:25;;;;;;;3.85;1.48;;;-0.50;99.90;;;;;;5053171;28;20033;-65
2023/03/11 07:43:54;;;;;;;2.00;1.25;;;-0.50;99.90;;;;;;5052390;28;20033;-65
2023/03/11 07:46:21;;;;;;;4.00;1.20;;;-0.40;99.90;;;;;;5035028;28;20049;-65
2023/03/11 07:48:48;;;;;;;12.63;3.45;;;-0.30;99.90;;;;;;5051702;28;20048;-65
2023/03/11 07:51:24;;;;;;;4.85;1.58;;;-0.10;99.90;;;;;;5052327;28;20072;-65
2023/03/11 07:53:52;;;;;;;3.83;1.33;;;0.00;99.90;;;;;;5051378;28;20045;-65
2023/03/11 07:56:19;;;;;;;3.63;0.90;;;0.10;99.90;;;;;;5052529;28;20490;-65
2023/03/11 07:58:45;;;;;;;4.90;1.17;;;0.30;99.90;;;;;;5052273;28;20051;-64
2023/03/11 08:01:16;;;;;;;4.43;1.27;;;0.40;99.90;;;;;;5053095;28;20041;-64
2023/03/11 08:03:44;;;;;;;6.07;1.20;;;0.50;99.90;;;;;;5051357;28;20045;-64
2023/03/11 08:06:25;;;;;;;5.75;1.40;;;0.70;99.90;;;;;;5051761;28;20041;-64
2023/03/11 08:08:51;;;;;;;5.60;1.35;;;0.80;99.90;;;;;;5050386;28;20520;-63
2023/03/11 08:11:18;;;;;;;10.55;2.00;;;1.00;99.90;;;;;;5052329;28;20055;-63
2023/03/11 08:13:45;;;;;;;7.22;1.50;;;1.20;99.90;;;;;;5050376;28;20482;-63
2023/03/11 08:16:13;;;;;;;5.93;1.42;;;1.50;99.90;;;;;;5051206;28;20045;-62
2023/03/11 08:18:39;;;;;;;5.75;0.90;;;1.80;99.90;;;;;;5051061;28;20049;-62
2023/03/11 08:21:10;;;;;;;3.63;1.10;;;2.30;99.90;;;;;;5050235;28;20033;-62
2023/03/11 08:23:36;;;;;;;3.03;1.10;;;2.60;99.90;;;;;;5050524;28;20520;-62
2023/03/11 08:26:09;;;;;;;3.63;1.23;;;3.30;99.90;;;;;;5049960;28;20049;-63
2023/03/11 08:28:35;;;;;;;3.42;1.27;;;4.30;99.90;;;;;;5050715;28;20099;-63
2023/03/11 08:31:01;;;;;;;3.42;0.98;;;5.30;99.90;;;;;;5050874;28;20094;-63
2023/03/11 08:33:27;;;;;;;6.88;1.25;;;6.10;99.90;;;;;;5050172;28;20128;-63
2023/03/11 08:35:53;;;;;;;5.68;1.15;;;6.80;99.90;;;;;;5050885;28;20041;-64
2023/03/11 08:38:19;;;;;;;5.75;1.10;;;7.60;99.90;;;;;;5050635;28;20045;-64
2023/03/11 08:40:45;;;;;;;4.10;2.08;;;8.10;99.90;;;;;;5050100;28;20047;-64
2023/03/11 08:43:14;;;;;;;5.18;1.10;;;8.40;99.90;;;;;;5050656;28;20036;-63
2023/03/11 08:45:41;;;;;;;10.75;1.70;;;8.70;99.90;;;;;;5052116;28;20120;-63
2023/03/11 08:48:09;;;;;;;4.32;1.15;;;8.60;99.90;;;;;;5051338;28;20052;-63
2023/03/11 08:50:35;;;;;;;3.17;1.00;;;8.30;99.90;;;;;;5050376;28;20080;-63
2023/03/11 08:53:02;;;;;;;5.60;1.50;;;8.30;99.90;;;;;;5051577;28;20462;-63
2023/03/11 08:59:02;;;;;;;5.93;1.55;;;8.30;99.90;;;;;;5050203;28;20045;-63
2023/03/11 09:01:29;;;;;;;3.75;1.10;;;8.60;99.90;;;;;;5049628;28;20102;-64
2023/03/11 09:03:54;;;;;;;4.97;1.45;;;8.80;99.90;;;;;;5051586;28;20048;-63
2023/03/11 09:06:20;;;;;;;4.75;1.33;;;8.90;99.90;;;;;;5051529;28;20048;-63
2023/03/11 09:08:48;;;;;;;5.18;1.27;;;9.20;99.90;;;;;;5047674;28;20041;-63
2023/03/11 09:11:21;;;;;;;4.18;1.52;;;9.30;99.90;;;;;;5030640;28;20060;-63
2023/03/11 09:13:48;;;;;;;3.97;1.05;;;9.50;99.90;;;;;;5037261;28;20059;-64
2023/03/11 09:16:22;;;;;;;4.57;1.17;;;9.70;99.90;;;;;;5013690;28;20041;-64
2023/03/11 09:18:48;;;;;;;3.58;1.00;;;10.00;99.90;;;;;;5062196;28;20513;-65
2023/03/11 09:21:14;;;;;;;3.42;0.93;;;10.30;99.90;;;;;;5031216;28;20075;-65
2023/03/11 09:23:40;;;;;;;5.03;1.60;;;10.30;99.90;;;;;;5029126;28;20108;-65
2023/03/11 09:26:06;;;;;;;5.80;1.13;;;10.30;99.90;;;;;;5039788;28;20521;-65
2023/03/11 09:28:32;;;;;;;5.10;1.45;;;10.30;99.90;;;;;;5050909;28;20044;-65
2023/03/11 09:30:58;;;;;;;6.40;1.23;;;10.30;99.90;;;;;;5049133;28;20048;-65
2023/03/11 09:33:24;;;;;;;5.38;1.27;;;10.60;99.90;;;;;;5048395;28;20063;-64
2023/03/11 09:35:50;;;;;;;5.13;1.00;;;10.80;99.90;;;;;;5029068;28;20128;-64
2023/03/11 09:38:15;;;;;;;3.80;1.52;;;10.80;99.90;;;;;;5062755;28;20185;-64
2023/03/11 09:41:00;;;;;;;6.10;1.42;;;10.70;99.90;;;;;;5063011;28;20069;-64
2023/03/11 09:44:01;;;;;;;3.28;1.10;;;10.60;99.90;;;;;;5030257;28;20060;-63
2023/03/11 09:46:57;;;;;;;3.35;1.75;;;10.60;99.90;;;;;;5037216;28;20605;-65
2023/03/11 09:50:04;;;;;;;15.35;8.20;;;10.50;99.90;;;;;;5061663;28;20042;-63
2023/03/11 09:52:42;;;;;;;3.80;1.23;;;10.50;99.90;;;;;;5062594;28;20049;-63
2023/03/11 09:55:24;;;;;;;4.07;1.75;;;10.50;99.90;;;;;;5062569;28;20102;-63
2023/03/11 09:57:51;;;;;;;5.40;1.23;;;10.60;99.90;;;;;;5062234;28;20446;-63
2023/03/11 10:00:22;;;;;;;2.95;1.70;;;10.70;99.90;;;;;;5062372;28;20509;-63
2023/03/11 10:02:49;;;;;;;6.70;0.95;;;10.80;99.90;;;;;;5039327;28;20576;-63
2023/03/11 10:05:27;;;;;;;4.35;1.10;;;11.30;99.90;;;;;;5048353;28;20071;-63
2023/03/11 10:08:11;;;;;;;3.58;1.10;;;11.50;99.90;;;;;;5050135;28;20041;-63
2023/03/11 10:10:50;;;;;;;4.35;1.20;;;11.60;99.90;;;;;;5050334;28;20037;-62
2023/03/11 10:14:12;;;;;;;5.78;0.90;;;11.70;99.90;;;;;;5049200;28;20110;-62
2023/03/11 10:17:01;;;;;;;3.42;1.20;;;12.30;99.90;;;;;;5027556;28;20139;-63
2023/03/11 10:19:52;;;;;;;7.10;1.77;;;13.10;99.90;;;;;;5007476;28;20045;-63
2023/03/11 10:22:36;;;;;;;4.63;1.38;;;13.10;99.90;;;;;;5027822;28;20075;-63
2023/03/11 10:25:06;;;;;;;3.78;1.20;;;13.20;99.90;;;;;;5026929;28;20116;-63
2023/03/11 10:27:52;;;;;;;3.10;0.80;;;13.50;99.90;;;;;;5027589;28;20399;-63
2023/03/11 10:30:26;;;;;;;3.95;1.08;;;13.40;99.90;;;;;;5029516;28;20034;-63
2023/03/11 10:33:03;;;;;;;3.30;1.00;;;13.60;99.90;;;;;;5031247;28;20072;-63
2023/03/11 10:35:40;;;;;;;5.93;1.30;;;13.70;99.90;;;;;;5031814;28;20041;-63
2023/03/11 10:38:12;;;;;;;6.32;1.08;;;13.60;99.90;;;;;;5031687;28;20227;-63
2023/03/11 10:40:43;;;;;;;4.68;0.90;;;13.70;99.90;;;;;;5031241;28;20157;-63
2023/03/11 10:43:11;;;;;;;3.28;1.02;;;13.80;99.90;;;;;;5031522;28;20552;-63
2023/03/11 10:45:40;;;;;;;5.00;1.45;;;13.70;99.90;;;;;;5031502;28;20124;-63
2023/03/11 10:48:14;;;;;;;4.13;0.93;;;13.80;99.90;;;;;;5031041;28;20458;-64
2023/03/11 10:50:55;;;;;;;3.72;0.75;;;14.20;99.90;;;;;;5031684;28;20398;-63
2023/03/11 10:53:21;;;;;;;5.60;1.30;;;14.60;99.90;;;;;;5050949;28;20124;-65
2023/03/11 10:55:52;;;;;;;5.60;1.05;;;15.00;99.90;;;;;;5052488;28;20201;-66
2023/03/11 10:58:29;;;;;;;3.60;0.80;;;15.60;99.90;;;;;;5052593;28;20045;-66
2023/03/11 11:01:05;;;;;;;4.25;1.25;;;15.50;97.90;;;;;;5053371;28;20041;-65
2023/03/11 11:03:32;;;;;;;4.88;0.90;;;14.70;96.90;;;;;;5036159;28;20126;-66
2023/03/11 11:06:05;;;;;;;5.15;0.82;;;14.60;98.00;;;;;;5052882;28;20125;-65
2023/03/11 11:08:32;;;;;;;3.15;0.77;;;14.50;96.10;;;;;;5051895;28;20049;-65
2023/03/11 11:11:00;;;;;;;5.70;0.93;;;14.20;96.70;;;;;;5052213;28;20055;-65
2023/03/11 11:13:33;;;;;;;3.65;0.68;;;14.10;96.60;;;;;;5052131;28;20052;-65
2023/03/11 11:16:19;;;;;;;5.20;0.75;;;13.90;95.30;;;;;;5050940;28;20716;-65
2023/03/11 11:19:00;;;;;;;7.78;1.27;;;13.80;95.60;;;;;;5052494;28;20049;-65
2023/03/11 11:21:36;;;;;;;3.92;1.25;;;14.10;96.10;;;;;;5053132;28;20037;-65
2023/03/11 11:24:19;;;;;;;2.13;0.73;;;14.20;95.50;;;;;;5053422;28;20404;-65
2023/03/11 11:27:03;;;;;;;3.17;0.90;;;14.00;94.40;;;;;;5053413;28;20049;-65
2023/03/11 11:29:30;;;;;;;5.57;0.80;;;13.40;94.20;;;;;;5052847;28;20405;-65
2023/03/11 11:32:16;;;;;;;2.65;0.70;;;13.00;94.90;;;;;;5051911;28;20049;-65
2023/03/11 11:34:51;;;;;;;3.22;0.90;;;12.80;94.60;;;;;;5052134;28;20429;-65
2023/03/11 11:37:17;;;;;;;5.05;0.80;;;12.80;94.80;;;;;;5053019;28;20040;-65
2023/03/11 11:39:52;;;;;;;4.50;0.95;;;13.10;93.80;;;;;;5052764;28;20067;-65
2023/03/11 11:42:19;;;;;;;3.13;0.70;;;12.90;92.50;;;;;;5051199;28;20477;-65
2023/03/11 11:44:56;;;;;;;2.78;0.70;;;12.50;93.50;;;;;;5035301;28;20033;-66
2023/03/11 11:47:26;;;;;;;4.07;0.80;;;12.30;93.80;;;;;;5051971;28;20041;-65
2023/03/11 11:49:57;;;;;;;3.63;0.45;;;12.00;94.00;;;;;;5052427;28;20080;-64
2023/03/11 11:52:31;;;;;;;1.63;0.45;;;11.50;93.50;;;;;;5051732;28;20124;-64
2023/03/11 11:55:00;;;;;;;1.65;0.55;;;11.20;93.20;;;;;;5051326;28;20056;-64
2023/03/11 11:57:26;;;;;;;4.40;0.70;;;11.20;93.40;;;;;;5052240;28;20041;-64
2023/03/11 11:59:52;;;;;;;5.97;1.17;;;11.20;93.90;;;;;;5052965;28;20044;-64
2023/03/11 12:02:30;;;;;;;3.72;0.63;;;11.20;93.00;;;;;;5051476;28;20029;-64
2023/03/11 12:05:20;;;;;;;3.60;0.65;;;11.20;93.90;;;;;;5051974;28;20556;-64
2023/03/11 12:07:49;;;;;;;4.43;1.20;;;11.00;93.40;;;;;;5051077;28;20037;-64
2023/03/11 12:10:35;;;;;;;4.40;0.68;;;10.70;92.90;;;;;;5051741;28;20033;-64
2023/03/11 12:13:20;;;;;;;4.53;1.00;;;10.40;92.60;;;;;;5051014;28;20481;-64
2023/03/11 12:16:20;;;;;;;3.30;0.60;;;10.20;92.20;;;;;;5051027;28;20052;-64
2023/03/11 12:19:09;;;;;;;2.15;0.57;;;10.00;92.30;;;;;;5050785;28;20037;-64
2023/03/11 12:21:54;;;;;;;2.45;0.68;;;9.70;93.20;;;;;;5050508;28;20482;-64
2023/03/11 12:24:28;;;;;;;3.63;0.68;;;9.50;93.10;;;;;;5030826;28;20064;-64
2023/03/11 12:26:59;;;;;;;4.05;0.65;;;9.30;93.70;;;;;;5014209;28;20053;-64
2023/03/11 12:29:39;;;;;;;3.67;0.80;;;9.20;93.60;;;;;;5032138;28;20379;-64
2023/03/11 12:32:06;;;;;;;2.22;0.50;;;9.00;94.00;;;;;;5030174;28;20482;-64
2023/03/11 12:34:34;;;;;;;1.70;0.40;;;9.00;94.40;;;;;;5031942;28;20040;-63
2023/03/11 12:37:04;;;;;;;2.38;0.70;;;9.00;94.00;;;;;;5031548;28;20045;-63
2023/03/11 12:39:33;;;;;;;3.28;0.65;;;9.00;95.00;;;;;;5031160;28;20045;-63
2023/03/11 12:42:23;;;;;;;5.05;0.65;;;9.00;95.00;;;;;;5030313;28;20048;-63
2023/03/11 12:44:50;;;;;;;2.20;0.70;;;9.00;94.90;;;;;;5029993;28;20091;-64
2023/03/11 12:47:17;;;;;;;2.13;0.40;;;9.10;94.80;;;;;;5030421;28;20077;-63
2023/03/11 12:49:53;;;;;;;4.22;0.60;;;9.00;94.50;;;;;;5030605;28;20041;-63
2023/03/11 12:52:25;;;;;;;2.72;0.70;;;8.90;94.00;;;;;;5029957;28;20053;-63
2023/03/11 12:54:54;;;;;;;1.13;0.40;;;8.80;94.20;;;;;;5030150;28;20128;-63
2023/03/11 12:57:20;;;;;;;3.60;0.50;;;8.50;93.90;;;;;;5031568;28;20423;-63
2023/03/11 13:00:17;;;;;;;5.55;0.77;;;8.50;94.70;;;;;;5029692;28;20041;-63
2023/03/11 13:03:09;;;;;;;4.93;1.48;;;8.70;95.30;;;;;;5040687;28;20041;-63
2023/03/11 13:06:12;;;;;;;2.72;0.57;;;8.90;95.70;;;;;;5051194;28;20052;-63
2023/03/11 13:08:47;;;;;;;3.22;0.70;;;9.20;95.40;;;;;;5050373;28;20055;-63